Tuesday, March 31, 2015
18:08 UTC
  |  Log In   |  Register Free
Airport Search:

Henry Post Aaf (Fort Sill) Airport
(KFSI)

Henry Post Aaf (Fort Sill) Airport Diagram
No Airport Diagram Available

FAA data valid effective March 05, 2015 - April 30, 2015 (unless otherwise noted).

 
 
 
 
 
 
 
 
 
 
 
 
 
 

Current Aviation Weather for Henry Post Aaf (Fort Sill) Airport (KFSI)

The most recent METAR observation for KFSI was updated at: 1709
METAR Summary (Translated METAR)
KFSI
311658Z AUTO 14005KT 10SM CLR 24/17 A2994 RMK AO2 RAB02E04DZB04E12 SLP133 P0000 T02350170
KLAW
311653Z 17005KT 10SM CLR 24/17 A2995 RMK AO2 SLP135 T02390167
(5.0 nm SW from KFSI)
KDUC
311655Z AUTO 19004KT 10SM CLR 25/17 A2995 RMK AO2
(24.4 nm SE from KFSI)
TAF Summary (Translated TAF)
KFSI
3114/0119 VRB06KT 2400 BR BKN003 QNH2990INS BECMG 3115/3116 16009KT 6000 BR SCT005 QNH2985INS BECMG 3116/3117 17009KT 9999 NSW BKN150 QNH2981INS BECMG 3122/3123 17012G18KT 9999 VCTS SCT050CB QNH2977INS TEMPO 0101/0106 VRB40G50KT 1600 +TSRAGR OVC040CB BECMG 0106/0107 15009KT 9999 NSW SCT200 QNH2990INS BECMG 0108/0109 15006KT 0400 FG OVC002 QNH2981INS TX31/3122Z TN17/3114Z AMD 311458
KLAW
(5.0 nm SW from KFSI)
311309Z 3113/0112 18004KT 1/4SM FG VV002 TEMPO 3114/3115 1SM BR SCT005 FM311500 15007KT 5SM BR SCT009 FM311600 15006KT P6SM SCT250 FM312100 15012G18KT P6SM SCT040
  Airport Weather Conditions for KFSI

 Current Weather at FSI
66° F
Fog/Mist
Variable winds at 3.5 mph
FSI NOAA Radar

Pressure: 29.95 in
Humidity: 100%
Wind: Variable at 3.5 MPH (3 KT)
Dew Point: 66.4°F
Visibility: 5.00 mi


Airport Weather Forecast for KFSI

Translated METAR and TAF for KFSI
Translated METAR for KFSI (1807 UTC 31 March 2015)
found at http://aviationweather.gov/adds/metars/
 
METAR text: KFSI 311758Z AUTO VRB02KT 10SM CLR 26/18 A2993 RMK AO2 SLP129 60000 T02610175 10261 20136 58006
Conditions at: KFSI (FORT SILL , OK, US) observed 1758 UTC 31 March 2015
Temperature: 26.1°C (79°F)
Dewpoint: 17.5°C (64°F) [RH = 59%]
Pressure (altimeter): 29.93 inches Hg (1013.6 mb)
[Sea-level pressure: 1012.9 mb]
Winds: variable direction winds at 2 MPH (2 knots; 1.0 m/s)
Visibility: 10 or more miles (16+ km)
Ceiling: at least 12,000 feet AGL
Clouds: sky clear below 12,000 feet AGL
Weather: automated observation with no human augmentation;
there may or may not be significant weather present at this time
Translated TAF for KFSI
Forecast for: KFSI (FORT SILL , OK, US)
TAF Text: TAF AMD KFSI 3114/0119 VRB06KT 2400 BR BKN003 QNH2990INS
Forecast period: 1400 to 1500 UTC 31 March 2015
Forecast type: FROM: standard forecast or significant change
Winds: variable direction winds at 7 MPH (6 knots; 3.1 m/s)
Visibility: 1.49 miles (2.40 km)
Ceiling: 300 feet AGL
Clouds: broken clouds at 300 feet AGL
Weather: BR  (mist)
TAF Text: BECMG 3115/3116 16009KT 6000 BR SCT005 QNH2985INS
Forecast period: 1500 to 1600 UTC 31 March 2015
Forecast type: BECOMING: Conditions expected to become as follows by 1600 UTC 31 March 2015
Winds: from the SSE (160 degrees) at 10 MPH (9 knots; 4.7 m/s)
Visibility: 4 miles (6 km)
Clouds: scattered clouds at 500 feet AGL
Weather: BR  (mist)
TAF Text: BECMG 3116/3117 17009KT 9999 NSW BKN150 QNH2981INS
Forecast period: 1600 to 2200 UTC 31 March 2015
Forecast type: BECOMING: Conditions expected to become as follows by 1700 UTC 31 March 2015
Winds: from the S (170 degrees) at 10 MPH (9 knots; 4.7 m/s)
Visibility: 6 or more miles (10+ km)
Ceiling: 15000 feet AGL
Clouds: broken clouds at 15000 feet AGL
Weather: NSW  (no significant weather)
TAF Text: BECMG 3122/3123 17012G18KT 9999 VCTS SCT050CB QNH2977INS
Forecast period: 2200 UTC 31 March 2015 to 0600 UTC 01 April 2015
Forecast type: BECOMING: Conditions expected to become as follows by 2300 UTC 31 March 2015
Winds: from the S (170 degrees) at 14 MPH (12 knots; 6.2 m/s)
gusting to 21 MPH (18 knots; 9.4 m/s)
Visibility: 6 or more miles (10+ km)
Clouds: scattered clouds at 5000 feet AGL
Weather: VCTS  (thunderstorm in vicinity)
TAF Text: TEMPO 0101/0106 VRB40G50KT 1600 +TSRAGR OVC040CB
Forecast period: 0100 to 0600 UTC 01 April 2015
Forecast type: TEMPORARY: The following changes expected for less than half the time period
Winds: variable direction winds at 46 MPH (40 knots; 20.8 m/s)
gusting to 57 MPH (50 knots; 26.0 m/s)
Visibility: 0.99 miles (1.59 km)
Ceiling: 4000 feet AGL
Clouds: overcast cloud deck at 4000 feet AGL
Weather: +TSRA +TSGR  (heavy rain associated with thunderstorm(s) could not decipher "+TSGR")
TAF Text: BECMG 0106/0107 15009KT 9999 NSW SCT200 QNH2990INS
Forecast period: 0600 to 0800 UTC 01 April 2015
Forecast type: BECOMING: Conditions expected to become as follows by 0700 UTC 01 April 2015
Winds: from the SSE (150 degrees) at 10 MPH (9 knots; 4.7 m/s)
Visibility: 6 or more miles (10+ km)
Clouds: scattered clouds at 20000 feet AGL
Weather: NSW  (no significant weather)
TAF Text: BECMG 0108/0109 15006KT 0400 FG OVC002 QNH2981INS TX31/3122Z TN17/3114Z AMD 311458
Forecast period: 0800 to 1900 UTC 01 April 2015
Forecast type: BECOMING: Conditions expected to become as follows by 0900 UTC 01 April 2015
Winds: from the SSE (150 degrees) at 7 MPH (6 knots; 3.1 m/s)
Visibility: 0.25 miles (0.40 km)
Ceiling: 200 feet AGL
Clouds: overcast cloud deck at 200 feet AGL
Weather: FG  (fog)

Find All Airport Services Find A Hotel Find A Rental Car Find A Golf Course Find A Restaurant $100 Hamburger



FBO's on the Field
FBO Company Facility Photos Services Transportation Aviation Fuel Prices: Prices include tax
Catering Weather Repair Courtesy Rental Type 100LL JetA JetA+ MOGAS 8087
 
Add another FBO Facility Photos Catering Weather Repair Courtesy Rental Type 100LL JetA JetA+ MOGAS 8087
Services Transportation Aviation Fuel Prices: Prices include tax
There are no FBO's currently reporting fuel at FSI. List your FBO now


model-print
model-print
model-print
model-print